createdAt,value
2018-09-25T00:02:16.368Z,12.29
2018-09-25T00:04:50.600Z,12.28
2018-09-25T00:07:24.892Z,12.31
2018-09-25T00:09:59.102Z,12.29
2018-09-25T00:12:33.354Z,12.18
2018-09-25T00:15:07.591Z,12.19
2018-09-25T00:17:41.754Z,12.25
2018-09-25T00:20:16.044Z,12.27
2018-09-25T00:22:50.319Z,12.28
2018-09-25T00:25:24.560Z,12.26
2018-09-25T00:28:00.098Z,12.26
2018-09-25T00:30:34.352Z,12.26
2018-09-25T00:33:08.724Z,12.25
2018-09-25T00:35:42.984Z,12.18
2018-09-25T00:38:17.363Z,12.16
2018-09-25T00:40:51.639Z,12.14
2018-09-25T00:43:26.029Z,12.19
2018-09-25T00:46:00.315Z,12.19
2018-09-25T00:48:34.538Z,12.23
2018-09-25T00:51:08.738Z,12.21
2018-09-25T00:53:42.963Z,12.28
2018-09-25T00:56:17.094Z,12.28
2018-09-25T00:58:51.268Z,12.25
2018-09-25T01:01:25.473Z,12.22
2018-09-25T01:03:59.686Z,12.15
2018-09-25T01:06:33.972Z,12.20
2018-09-25T01:09:12.746Z,12.18
2018-09-25T01:11:46.893Z,12.18
2018-09-25T01:14:21.154Z,12.09
2018-09-25T01:16:55.186Z,12.06
2018-09-25T01:19:29.217Z,12.07
2018-09-25T01:22:03.533Z,12.08
2018-09-25T01:24:39.854Z,12.11
2018-09-25T01:27:14.065Z,12.08
2018-09-25T01:29:48.408Z,11.85
2018-09-25T01:32:22.608Z,11.34
2018-09-25T01:34:56.742Z,11.44
2018-09-25T01:37:31.056Z,11.44
2018-09-25T01:40:08.412Z,11.25
2018-09-25T01:42:43.774Z,11.18
2018-09-25T01:45:18.216Z,11.18
2018-09-25T01:47:52.472Z,10.85
2018-09-25T01:50:26.734Z,11.00
2018-09-25T01:53:00.972Z,10.98
2018-09-25T01:55:35.180Z,10.95
2018-09-25T01:58:09.526Z,11.06
2018-09-25T02:00:43.834Z,11.17
2018-09-25T02:03:18.028Z,11.13
2018-09-25T02:05:52.408Z,11.07
2018-09-25T02:08:28.776Z,11.01
2018-09-25T02:11:03.052Z,10.86
2018-09-25T02:13:37.248Z,10.94
2018-09-25T02:16:11.688Z,11.04
2018-09-25T02:18:45.941Z,11.10
2018-09-25T02:21:20.204Z,11.15
2018-09-25T02:23:54.407Z,11.06
2018-09-25T02:26:28.645Z,11.18
2018-09-25T02:29:02.818Z,11.24
2018-09-25T02:31:37.078Z,11.15
2018-09-25T02:34:11.300Z,11.19
2018-09-25T02:36:45.546Z,11.30
2018-09-25T02:39:19.792Z,11.40
2018-09-25T02:41:54.046Z,11.43
2018-09-25T02:44:28.248Z,11.37
2018-09-25T02:47:02.595Z,11.32
2018-09-25T02:49:36.877Z,11.29
2018-09-25T02:52:11.205Z,11.29
2018-09-25T02:54:45.347Z,11.07
2018-09-25T02:57:19.527Z,11.27
2018-09-25T02:59:54.098Z,11.22
2018-09-25T03:02:28.254Z,11.26
2018-09-25T03:05:02.603Z,11.19
2018-09-25T03:07:36.663Z,11.35
2018-09-25T03:10:11.065Z,11.41
2018-09-25T03:12:45.348Z,11.48
2018-09-25T03:15:19.675Z,11.53
2018-09-25T03:17:53.690Z,11.44
2018-09-25T03:20:27.973Z,11.53
2018-09-25T03:23:02.124Z,11.53
2018-09-25T03:25:36.329Z,11.52
2018-09-25T03:28:10.483Z,11.41
2018-09-25T03:30:44.758Z,11.40
2018-09-25T03:33:19.010Z,11.53
2018-09-25T03:35:53.338Z,11.50
2018-09-25T03:38:27.591Z,11.47
2018-09-25T03:41:01.865Z,11.53
2018-09-25T03:43:36.129Z,11.56
2018-09-25T03:46:10.445Z,11.65
2018-09-25T03:48:45.727Z,11.55
2018-09-25T03:51:20.003Z,11.45
2018-09-25T03:53:54.337Z,11.57
2018-09-25T03:56:28.601Z,11.54
2018-09-25T03:59:02.775Z,11.58
2018-09-25T04:01:36.955Z,11.52
2018-09-25T04:04:11.047Z,11.40
2018-09-25T04:06:45.201Z,11.42
2018-09-25T04:09:20.607Z,11.53
2018-09-25T04:11:54.891Z,11.55
2018-09-25T04:14:29.214Z,11.48
2018-09-25T04:17:03.493Z,11.48
2018-09-25T04:19:37.678Z,11.47
2018-09-25T04:22:11.956Z,11.45
2018-09-25T04:24:46.223Z,11.54
2018-09-25T04:27:20.683Z,11.56
2018-09-25T04:29:54.915Z,11.61
2018-09-25T04:32:29.168Z,11.66
2018-09-25T04:35:03.437Z,11.51
2018-09-25T04:37:37.755Z,11.42
2018-09-25T04:40:11.975Z,11.41
2018-09-25T04:42:46.077Z,11.57
2018-09-25T04:45:20.150Z,11.66
2018-09-25T04:47:54.424Z,11.64
2018-09-25T04:50:28.805Z,11.84
2018-09-25T04:53:02.961Z,11.40
2018-09-25T04:55:37.135Z,11.19
2018-09-25T04:58:11.611Z,11.25
2018-09-25T05:00:45.753Z,11.19
2018-09-25T05:03:19.923Z,11.09
2018-09-25T05:05:54.055Z,11.15
2018-09-25T05:08:28.311Z,11.24
2018-09-25T05:11:02.695Z,11.28
2018-09-25T05:13:36.827Z,11.32
2018-09-25T05:16:11.243Z,11.37
2018-09-25T05:18:45.284Z,11.41
2018-09-25T05:21:19.473Z,11.43
2018-09-25T05:24:01.743Z,11.45
2018-09-25T05:26:35.961Z,11.50
2018-09-25T05:29:10.187Z,11.50
2018-09-25T05:31:44.391Z,11.51
2018-09-25T05:34:18.637Z,11.57
2018-09-25T05:36:52.813Z,11.60
2018-09-25T05:39:28.043Z,11.61
2018-09-25T05:42:02.427Z,11.59
2018-09-25T05:44:36.655Z,11.62
2018-09-25T05:47:11.166Z,11.66
2018-09-25T05:49:45.463Z,11.77
2018-09-25T05:52:19.642Z,11.77
2018-09-25T05:54:53.817Z,11.82
2018-09-25T05:57:28.214Z,11.71
2018-09-25T06:00:02.542Z,11.64
2018-09-25T06:02:38.932Z,11.81
2018-09-25T06:05:13.602Z,11.80
2018-09-25T06:07:47.784Z,11.86
2018-09-25T06:10:22.060Z,11.97
2018-09-25T06:12:56.253Z,11.98
2018-09-25T06:15:30.477Z,12.03
2018-09-25T06:18:04.744Z,12.12
2018-09-25T06:20:39.124Z,12.20
2018-09-25T06:23:13.297Z,12.27
2018-09-25T06:25:47.483Z,12.36
2018-09-25T06:28:21.801Z,12.45
2018-09-25T06:30:56.075Z,12.54
2018-09-25T06:33:30.447Z,12.57
2018-09-25T06:36:04.826Z,12.59
2018-09-25T06:38:39.125Z,12.87
2018-09-25T06:41:14.047Z,13.72
2018-09-25T06:43:48.322Z,14.20
2018-09-25T06:46:22.524Z,14.40
2018-09-25T06:48:56.958Z,14.93
2018-09-25T06:51:31.472Z,15.15
2018-09-25T06:54:05.841Z,15.53
2018-09-25T06:56:40.575Z,15.67
2018-09-25T06:59:15.512Z,15.58
2018-09-25T07:01:50.016Z,15.78
2018-09-25T07:04:24.283Z,15.31
2018-09-25T07:06:58.560Z,15.22
2018-09-25T07:09:32.948Z,15.08
2018-09-25T07:12:07.532Z,15.20
2018-09-25T07:14:41.851Z,15.29
2018-09-25T07:17:16.651Z,15.48
2018-09-25T07:19:51.057Z,15.78
2018-09-25T07:22:25.518Z,15.87
2018-09-25T07:24:59.799Z,16.15
2018-09-25T07:27:38.813Z,16.08
2018-09-25T07:30:13.965Z,16.46
2018-09-25T07:32:52.590Z,16.28
2018-09-25T07:38:24.953Z,16.54
2018-09-25T07:41:00.005Z,16.66
2018-09-25T07:46:24.150Z,16.55
2018-09-25T07:48:58.521Z,16.66
2018-09-25T07:51:32.644Z,16.74
2018-09-25T07:54:06.989Z,16.72
2018-09-25T07:56:41.198Z,16.77
2018-09-25T07:59:15.387Z,16.81
2018-09-25T08:01:50.409Z,16.75
2018-09-25T08:04:25.546Z,16.88
2018-09-25T08:07:00.185Z,16.54
2018-09-25T08:09:36.353Z,16.69
2018-09-25T08:12:10.647Z,16.56
2018-09-25T08:14:46.992Z,16.75
2018-09-25T08:17:21.272Z,16.52
2018-09-25T08:19:55.556Z,16.28
2018-09-25T08:22:30.620Z,16.41
2018-09-25T08:25:04.812Z,16.44
2018-09-25T08:27:39.485Z,16.49
2018-09-25T08:30:13.804Z,16.47
2018-09-25T08:32:48.190Z,16.57
2018-09-25T08:35:22.652Z,16.52
2018-09-25T08:37:56.988Z,16.56
2018-09-25T08:40:31.214Z,16.03
2018-09-25T08:43:06.687Z,16.17
2018-09-25T08:45:41.095Z,16.16
2018-09-25T08:48:15.216Z,16.26
2018-09-25T08:50:49.505Z,16.24
2018-09-25T08:53:24.059Z,15.96
2018-09-25T08:55:58.197Z,16.05
2018-09-25T08:58:32.431Z,16.01
2018-09-25T09:01:08.588Z,16.02
2018-09-25T09:03:42.942Z,15.84
2018-09-25T09:06:24.034Z,15.88
2018-09-25T09:08:58.300Z,15.76
2018-09-25T09:11:32.604Z,15.50
2018-09-25T09:14:06.812Z,15.58
2018-09-25T09:16:41.010Z,15.60
2018-09-25T09:19:15.316Z,15.33
2018-09-25T09:21:49.512Z,15.35
2018-09-25T09:24:24.845Z,15.35
2018-09-25T09:26:59.041Z,15.41
2018-09-25T09:29:33.694Z,15.45
2018-09-25T09:32:07.916Z,15.44
2018-09-25T09:34:42.468Z,15.44
2018-09-25T09:37:16.575Z,15.41
2018-09-25T09:39:50.871Z,15.49
2018-09-25T09:42:25.563Z,15.39
2018-09-25T09:45:02.848Z,15.51
2018-09-25T09:47:37.145Z,15.45
2018-09-25T09:50:11.423Z,15.44
2018-09-25T09:52:45.745Z,15.30
2018-09-25T09:55:20.005Z,15.22
2018-09-25T09:57:54.305Z,15.05
2018-09-25T10:00:28.474Z,14.86
2018-09-25T10:03:04.870Z,14.98
2018-09-25T10:05:39.052Z,15.11
2018-09-25T10:08:13.304Z,15.22
2018-09-25T10:10:47.621Z,15.29
2018-09-25T10:13:21.932Z,15.35
2018-09-25T10:15:56.202Z,15.39
2018-09-25T10:18:30.437Z,15.40
2018-09-25T10:21:08.927Z,15.40
2018-09-25T10:23:43.253Z,15.44
2018-09-25T10:26:17.508Z,15.45
2018-09-25T10:28:52.910Z,15.52
2018-09-25T10:31:27.196Z,15.53
2018-09-25T10:34:01.501Z,15.53
2018-09-25T10:36:48.960Z,15.54
2018-09-25T10:39:23.289Z,15.65
2018-09-25T10:41:57.602Z,15.66
2018-09-25T10:44:32.920Z,15.65
2018-09-25T10:47:07.303Z,15.63
2018-09-25T10:49:41.594Z,15.59
2018-09-25T10:52:15.837Z,15.51
2018-09-25T10:54:50.097Z,15.57
2018-09-25T10:57:24.367Z,15.70
2018-09-25T10:59:58.593Z,15.78
2018-09-25T11:02:33.004Z,15.71
2018-09-25T11:05:07.328Z,15.68
2018-09-25T11:07:41.542Z,15.69
2018-09-25T11:10:15.891Z,15.60
2018-09-25T11:12:50.093Z,15.42
2018-09-25T11:15:24.377Z,15.52
2018-09-25T11:18:00.763Z,15.57
2018-09-25T11:20:38.215Z,15.55
2018-09-25T11:23:12.523Z,15.54
2018-09-25T11:25:46.739Z,15.54
2018-09-25T11:28:23.141Z,15.59
2018-09-25T11:30:57.445Z,15.65
2018-09-25T11:33:41.441Z,15.70
2018-09-25T11:36:15.704Z,15.52
2018-09-25T11:38:50.050Z,15.45
2018-09-25T11:41:24.433Z,15.30
2018-09-25T11:43:58.553Z,15.27
2018-09-25T11:46:32.886Z,15.26
2018-09-25T11:49:06.983Z,15.27
2018-09-25T11:51:48.272Z,15.33
2018-09-25T11:54:22.528Z,15.33
2018-09-25T11:56:56.877Z,15.37
2018-09-25T11:59:31.091Z,15.37
2018-09-25T12:02:05.317Z,15.43
2018-09-25T12:04:39.636Z,15.54
2018-09-25T12:07:13.689Z,15.57
2018-09-25T12:09:47.841Z,15.63
2018-09-25T12:12:22.028Z,15.61
2018-09-25T12:14:56.421Z,15.58
2018-09-25T12:17:30.795Z,15.59
2018-09-25T12:20:04.905Z,15.58
2018-09-25T12:22:39.183Z,15.62
2018-09-25T12:25:13.404Z,15.55
2018-09-25T12:27:47.726Z,15.52
2018-09-25T12:30:22.030Z,15.61
2018-09-25T12:32:56.230Z,15.70
2018-09-25T12:35:30.502Z,15.71
2018-09-25T12:38:04.708Z,15.72
2018-09-25T12:40:40.990Z,15.79
2018-09-25T12:43:15.198Z,15.85
2018-09-25T12:45:49.504Z,15.81
2018-09-25T12:48:23.785Z,15.78
2018-09-25T12:50:57.983Z,15.72
2018-09-25T12:53:32.185Z,15.81
2018-09-25T12:56:06.345Z,15.77
2018-09-25T12:58:40.536Z,15.52
2018-09-25T13:01:14.755Z,15.52
2018-09-25T13:04:05.736Z,15.49
2018-09-25T13:06:39.948Z,15.54
2018-09-25T13:09:15.223Z,15.60
2018-09-25T13:11:49.685Z,15.64
2018-09-25T13:14:24.015Z,15.69
2018-09-25T13:16:58.195Z,15.78
2018-09-25T13:19:32.415Z,15.82
2018-09-25T13:22:20.078Z,15.77
2018-09-25T13:24:54.233Z,15.65
2018-09-25T13:27:28.449Z,15.69
2018-09-25T13:30:02.935Z,15.87
2018-09-25T13:32:37.071Z,15.88
2018-09-25T13:35:11.427Z,15.87
2018-09-25T13:37:45.636Z,15.90
2018-09-25T13:40:20.783Z,15.91
2018-09-25T13:42:55.005Z,15.98
2018-09-25T13:45:29.219Z,16.08
2018-09-25T13:48:03.413Z,16.05
2018-09-25T13:50:37.775Z,15.99
2018-09-25T13:53:12.541Z,16.10
2018-09-25T13:55:47.393Z,16.18
2018-09-25T13:58:22.769Z,16.24
2018-09-25T14:00:57.048Z,16.25
2018-09-25T14:03:33.308Z,16.25
2018-09-25T14:06:07.562Z,16.26
2018-09-25T14:08:41.985Z,16.22
2018-09-25T14:11:17.304Z,16.23
2018-09-25T14:13:51.644Z,16.26
2018-09-25T14:16:30.882Z,16.28
2018-09-25T14:19:05.073Z,16.20
2018-09-25T14:21:39.399Z,16.31
2018-09-25T14:24:13.741Z,16.42
2018-09-25T14:26:47.984Z,16.52
2018-09-25T14:29:22.260Z,16.57
2018-09-25T14:31:58.516Z,16.57
2018-09-25T14:34:32.811Z,16.40
2018-09-25T14:37:10.928Z,16.42
2018-09-25T14:39:45.049Z,16.46
2018-09-25T14:42:19.281Z,16.54
2018-09-25T14:45:04.143Z,16.41
2018-09-25T14:47:38.257Z,16.24
2018-09-25T14:50:12.488Z,16.25
2018-09-25T14:52:46.683Z,16.25
2018-09-25T14:55:21.124Z,16.23
2018-09-25T14:57:55.424Z,16.23
2018-09-25T15:00:29.824Z,16.31
2018-09-25T15:03:04.005Z,16.41
2018-09-25T15:05:38.168Z,16.46
2018-09-25T15:08:19.325Z,16.30
2018-09-25T15:10:53.609Z,16.29
2018-09-25T15:13:29.909Z,16.29
2018-09-25T15:16:04.227Z,16.22
2018-09-25T15:18:38.591Z,16.18
2018-09-25T15:21:12.955Z,16.23
2018-09-25T15:23:47.121Z,16.24
2018-09-25T15:26:21.336Z,16.16
2018-09-25T15:28:55.744Z,16.08
2018-09-25T15:31:29.941Z,16.11
2018-09-25T15:34:04.165Z,16.04
2018-09-25T15:36:38.311Z,16.06
2018-09-25T15:39:23.528Z,16.08
2018-09-25T15:41:57.811Z,16.07
2018-09-25T15:44:32.042Z,16.09
2018-09-25T15:47:06.271Z,16.04
2018-09-25T15:49:40.477Z,16.04
2018-09-25T15:52:14.712Z,16.10
2018-09-25T15:54:48.989Z,16.14
2018-09-25T15:57:23.233Z,16.12
2018-09-25T15:59:57.463Z,16.11
2018-09-25T16:02:31.688Z,16.08
2018-09-25T16:05:06.899Z,16.04
2018-09-25T16:07:41.160Z,15.94
2018-09-25T16:10:15.337Z,16.01
2018-09-25T16:12:49.575Z,15.98
2018-09-25T16:15:23.985Z,15.94
2018-09-25T16:17:58.177Z,15.93
2018-09-25T16:20:32.455Z,15.95
2018-09-25T16:23:07.638Z,15.93
2018-09-25T16:25:41.857Z,15.89
2018-09-25T16:28:16.097Z,15.83
2018-09-25T16:30:54.371Z,15.74
2018-09-25T16:33:28.659Z,15.69
2018-09-25T16:36:02.833Z,15.70
2018-09-25T16:38:37.038Z,15.74
2018-09-25T16:41:11.243Z,15.71
2018-09-25T16:43:48.639Z,15.74
2018-09-25T16:46:22.937Z,15.77
2018-09-25T16:48:57.242Z,15.81
2018-09-25T16:51:31.360Z,15.82
2018-09-25T16:54:05.551Z,15.75
2018-09-25T16:56:39.944Z,15.75
2018-09-25T16:59:14.142Z,15.69
2018-09-25T17:01:48.393Z,15.68
2018-09-25T17:04:32.558Z,15.66
2018-09-25T17:07:06.769Z,15.67
2018-09-25T17:09:41.508Z,15.64
2018-09-25T17:12:15.882Z,15.56
2018-09-25T17:14:50.028Z,15.56
2018-09-25T17:17:24.244Z,15.53
2018-09-25T17:19:59.774Z,15.51
2018-09-25T17:22:34.386Z,15.52
2018-09-25T17:25:11.838Z,15.49
2018-09-25T17:27:46.056Z,15.39
2018-09-25T17:30:20.363Z,15.38
2018-09-25T17:32:56.736Z,15.33
2018-09-25T17:35:31.020Z,15.31
2018-09-25T17:38:05.334Z,15.31
2018-09-25T17:40:39.859Z,15.31
2018-09-25T17:43:14.106Z,15.30
2018-09-25T17:45:48.219Z,15.27
2018-09-25T17:48:22.412Z,15.26
2018-09-25T17:50:56.608Z,15.27
2018-09-25T17:53:30.923Z,15.21
2018-09-25T17:56:05.152Z,15.27
2018-09-25T17:58:39.276Z,15.25
2018-09-25T18:01:13.560Z,15.22
2018-09-25T18:03:47.804Z,15.20
2018-09-25T18:06:22.184Z,15.21
2018-09-25T18:08:56.466Z,15.14
2018-09-25T18:11:30.650Z,15.11
2018-09-25T18:14:04.966Z,15.12
2018-09-25T18:16:39.104Z,15.09
2018-09-25T18:19:13.300Z,15.06
2018-09-25T18:21:47.529Z,15.03
2018-09-25T18:24:21.857Z,15.04
2018-09-25T18:26:56.125Z,14.99
2018-09-25T18:29:30.261Z,14.94
2018-09-25T18:32:05.474Z,14.97
2018-09-25T18:34:39.724Z,14.96
2018-09-25T18:37:13.946Z,14.93
2018-09-25T18:39:48.122Z,14.90
2018-09-25T18:42:22.383Z,14.88
2018-09-25T18:44:56.554Z,14.88
2018-09-25T18:47:30.826Z,14.82
2018-09-25T18:50:05.196Z,14.82
2018-09-25T18:52:39.462Z,14.80
2018-09-25T18:55:13.991Z,14.79
2018-09-25T18:57:48.120Z,14.74
2018-09-25T19:00:22.354Z,14.76
2018-09-25T19:02:56.552Z,14.72
2018-09-25T19:05:30.814Z,14.69
2018-09-25T19:08:05.132Z,14.65
2018-09-25T19:10:39.372Z,14.72
2018-09-25T19:13:13.652Z,14.57
2018-09-25T19:15:47.812Z,14.61
2018-09-25T19:18:32.880Z,14.38
2018-09-25T19:21:07.149Z,14.42
2018-09-25T19:23:41.288Z,14.47
2018-09-25T19:26:15.460Z,14.49
2018-09-25T19:28:49.726Z,14.51
2018-09-25T19:31:23.975Z,14.40
2018-09-25T19:33:58.194Z,14.39
2018-09-25T19:36:44.868Z,14.43
2018-09-25T19:39:21.263Z,14.35
2018-09-25T19:41:56.284Z,14.39
2018-09-25T19:44:30.420Z,14.35
2018-09-25T19:47:11.926Z,14.34
2018-09-25T19:49:46.063Z,14.39
2018-09-25T19:52:20.341Z,14.43
2018-09-25T19:54:54.641Z,14.43
2018-09-25T19:57:28.813Z,14.27
2018-09-25T20:00:03.020Z,14.34
2018-09-25T20:02:37.176Z,14.29
2018-09-25T20:05:11.367Z,14.35
2018-09-25T20:07:48.902Z,14.33
2018-09-25T20:10:23.048Z,14.17
2018-09-25T20:12:57.458Z,14.15
2018-09-25T20:15:31.800Z,14.13
2018-09-25T20:18:06.030Z,14.14
2018-09-25T20:20:40.218Z,14.21
2018-09-25T20:23:14.435Z,14.07
2018-09-25T20:25:48.577Z,14.12
2018-09-25T20:28:22.800Z,14.17
2018-09-25T20:30:57.078Z,14.11
2018-09-25T20:33:34.824Z,14.20
2018-09-25T20:36:09.232Z,14.12
2018-09-25T20:38:43.557Z,14.15
2018-09-25T20:41:17.842Z,14.24
2018-09-25T20:43:52.088Z,14.20
2018-09-25T20:46:26.347Z,14.21
2018-09-25T20:49:00.655Z,14.27
2018-09-25T20:51:34.776Z,14.31
2018-09-25T20:54:15.608Z,14.34
2018-09-25T20:56:49.720Z,14.41
2018-09-25T20:59:25.108Z,14.27
2018-09-25T21:01:59.334Z,14.18
2018-09-25T21:04:33.574Z,14.25
2018-09-25T21:07:10.807Z,14.22
2018-09-25T21:09:45.112Z,14.15
2018-09-25T21:12:19.242Z,14.14
2018-09-25T21:14:53.247Z,14.06
2018-09-25T21:17:28.632Z,14.14
2018-09-25T21:20:03.049Z,14.08
2018-09-25T21:22:37.358Z,13.98
2018-09-25T21:25:11.716Z,13.96
2018-09-25T21:27:45.876Z,13.78
2018-09-25T21:30:20.072Z,13.85
2018-09-25T21:32:54.310Z,13.82
2018-09-25T21:35:28.624Z,13.88
2018-09-25T21:38:02.764Z,13.88
2018-09-25T21:40:36.919Z,13.91
2018-09-25T21:43:11.188Z,13.95
2018-09-25T21:45:45.572Z,13.84
2018-09-25T21:48:19.771Z,13.94
2018-09-25T21:50:54.076Z,13.84
2018-09-25T21:53:28.492Z,13.86
2018-09-25T21:56:02.672Z,13.92
2018-09-25T21:58:37.002Z,13.88
2018-09-25T22:01:11.198Z,13.68
2018-09-25T22:03:45.669Z,13.81
2018-09-25T22:06:20.030Z,13.75
2018-09-25T22:08:54.351Z,13.87
2018-09-25T22:11:28.536Z,13.73
2018-09-25T22:14:02.918Z,13.78
2018-09-25T22:16:37.183Z,13.80
2018-09-25T22:19:11.368Z,13.47
2018-09-25T22:21:45.480Z,13.59
2018-09-25T22:24:19.888Z,13.51
2018-09-25T22:26:54.089Z,13.28
2018-09-25T22:29:28.344Z,13.29
2018-09-25T22:32:02.560Z,13.45
2018-09-25T22:34:36.770Z,13.57
2018-09-25T22:37:11.184Z,13.30
2018-09-25T22:39:45.488Z,13.35
2018-09-25T22:42:19.900Z,13.25
2018-09-25T22:44:54.017Z,13.24
2018-09-25T22:47:28.174Z,13.25
2018-09-25T22:50:02.405Z,13.41
2018-09-25T22:52:36.434Z,13.27
2018-09-25T22:55:10.688Z,13.52
2018-09-25T22:57:44.988Z,13.60
2018-09-25T23:00:19.283Z,13.46
2018-09-25T23:02:53.507Z,13.48
2018-09-25T23:05:27.782Z,13.55
2018-09-25T23:08:02.264Z,13.27
2018-09-25T23:10:36.628Z,13.46
2018-09-25T23:13:11.143Z,13.49
2018-09-25T23:15:45.355Z,13.55
2018-09-25T23:18:19.704Z,13.51
2018-09-25T23:20:54.042Z,13.27
2018-09-25T23:23:28.194Z,13.28
2018-09-25T23:26:02.470Z,13.23
2018-09-25T23:28:36.679Z,13.23
2018-09-25T23:31:11.990Z,13.14
2018-09-25T23:33:46.326Z,13.29
2018-09-25T23:36:20.764Z,13.24
2018-09-25T23:38:54.996Z,13.22
2018-09-25T23:41:28.111Z,13.39
2018-09-25T23:44:06.132Z,13.32
2018-09-25T23:48:43.333Z,13.32
2018-09-25T23:51:47.842Z,13.17
2018-09-25T23:54:24.986Z,12.88
2018-09-25T23:56:58.171Z,12.92
2018-09-25T23:59:36.584Z,12.81
